createdAt,value
2023-04-24T00:00:00.215Z,13.50
2023-04-24T00:05:03.930Z,13.50
2023-04-24T00:10:07.705Z,13.50
2023-04-24T00:15:12.854Z,13.60
2023-04-24T00:20:15.780Z,13.60
2023-04-24T00:25:18.720Z,13.70
2023-04-24T00:30:22.763Z,13.80
2023-04-24T00:35:25.493Z,13.70
2023-04-24T00:40:29.155Z,13.60
2023-04-24T00:45:33.437Z,13.50
2023-04-24T00:50:40.529Z,13.40
2023-04-24T00:55:46.300Z,13.30
2023-04-24T01:00:56.739Z,13.20
2023-04-24T01:06:00.247Z,13.20
2023-04-24T01:11:05.290Z,13.10
2023-04-24T01:16:09.449Z,13.10
2023-04-24T01:21:15.768Z,13.10
2023-04-24T01:26:20.979Z,13.00
2023-04-24T01:31:23.809Z,13.10
2023-04-24T01:36:28.227Z,13.20
2023-04-24T01:41:32.623Z,13.10
2023-04-24T01:46:36.887Z,13.20
2023-04-24T01:51:39.870Z,13.10
2023-04-24T01:56:47.092Z,13.10
2023-04-24T02:01:49.830Z,13.00
2023-04-24T02:06:52.520Z,13.10
2023-04-24T02:11:57.380Z,13.10
2023-04-24T02:17:00.053Z,13.00
2023-04-24T02:22:02.733Z,13.00
2023-04-24T02:27:07.444Z,12.90
2023-04-24T02:32:12.945Z,12.90
2023-04-24T02:37:15.879Z,12.90
2023-04-24T02:42:19.847Z,12.90
2023-04-24T02:47:22.823Z,12.70
2023-04-24T02:52:25.624Z,12.70
2023-04-24T02:57:29.757Z,12.60
2023-04-24T03:02:32.632Z,12.60
2023-04-24T03:07:35.494Z,12.80
2023-04-24T03:12:39.546Z,12.80
2023-04-24T03:17:42.412Z,12.60
2023-04-24T03:22:45.325Z,12.60
2023-04-24T03:27:49.426Z,12.60
2023-04-24T03:32:52.228Z,12.60
2023-04-24T03:37:55.015Z,12.70
2023-04-24T03:42:59.126Z,12.70
2023-04-24T03:48:01.869Z,12.60
2023-04-24T03:53:04.658Z,12.50
2023-04-24T03:58:08.694Z,12.40
2023-04-24T04:03:11.594Z,12.20
2023-04-24T04:08:14.342Z,12.30
2023-04-24T04:13:18.358Z,12.40
2023-04-24T04:18:21.124Z,12.40
2023-04-24T04:23:23.963Z,12.50
2023-04-24T04:28:28.431Z,12.60
2023-04-24T04:33:31.974Z,12.80
2023-04-24T04:38:37.004Z,13.00
2023-04-24T04:43:41.666Z,13.10
2023-04-24T04:48:47.121Z,13.30
2023-04-24T04:53:49.806Z,13.40
2023-04-24T04:58:54.088Z,13.40
2023-04-24T05:03:59.240Z,13.50
2023-04-24T05:09:05.492Z,13.70
2023-04-24T05:14:09.533Z,13.90
2023-04-24T05:19:12.740Z,14.20
2023-04-24T05:24:15.506Z,14.60
2023-04-24T05:29:32.730Z,14.90
2023-04-24T05:34:35.977Z,15.10
2023-04-24T05:39:41.439Z,15.20
2023-04-24T05:44:45.792Z,15.30
2023-04-24T05:49:48.529Z,15.40
2023-04-24T05:54:51.432Z,15.70
2023-04-24T05:59:56.164Z,15.70
2023-04-24T06:05:00.225Z,15.90
2023-04-24T06:10:02.981Z,16.10
2023-04-24T06:15:09.112Z,16.00
2023-04-24T06:20:12.879Z,16.10
2023-04-24T06:25:27.080Z,16.50
2023-04-24T06:30:37.832Z,16.80
2023-04-24T06:35:43.427Z,17.30
2023-04-24T06:40:54.364Z,17.70
2023-04-24T06:46:07.474Z,17.90
2023-04-24T06:51:10.276Z,18.10
2023-04-24T06:56:12.945Z,18.30
2023-04-24T07:01:16.971Z,18.40
2023-04-24T07:06:22.352Z,18.60
2023-04-24T07:11:25.626Z,19.10
2023-04-24T07:16:31.157Z,19.60
2023-04-24T07:21:34.014Z,19.60
2023-04-24T07:26:36.768Z,19.80
2023-04-24T07:31:42.044Z,20.30
2023-04-24T07:36:44.872Z,19.80
2023-04-24T07:41:47.513Z,19.10
2023-04-24T07:46:51.545Z,19.00
2023-04-24T07:51:54.214Z,19.00
2023-04-24T07:56:56.879Z,19.10
2023-04-24T08:02:02.743Z,19.10
2023-04-24T08:07:09.423Z,20.00
2023-04-24T08:12:15.342Z,19.70
2023-04-24T08:17:21.739Z,20.20
2023-04-24T08:22:27.441Z,19.70
2023-04-24T08:27:31.267Z,19.80
2023-04-24T08:32:40.856Z,20.10
2023-04-24T08:37:43.702Z,20.40
2023-04-24T08:42:47.183Z,20.00
2023-04-24T08:47:53.576Z,20.10
2023-04-24T08:52:58.429Z,20.00
2023-04-24T08:58:03.606Z,19.50
2023-04-24T09:03:08.565Z,19.30
2023-04-24T09:08:12.455Z,19.90
2023-04-24T09:13:15.924Z,21.60
2023-04-24T09:18:22.551Z,21.70
2023-04-24T09:23:28.430Z,22.10
2023-04-24T09:28:33.802Z,21.70
2023-04-24T09:33:39.062Z,22.00
2023-04-24T09:38:41.964Z,21.40
2023-04-24T09:43:45.100Z,21.90
2023-04-24T09:48:51.088Z,22.40
2023-04-24T09:53:55.551Z,21.70
2023-04-24T09:59:08.224Z,20.50
2023-04-24T10:04:21.689Z,20.00
2023-04-24T10:09:27.917Z,20.40
2023-04-24T10:14:32.918Z,20.30
2023-04-24T10:19:39.823Z,20.00
2023-04-24T10:24:46.367Z,20.20
2023-04-24T10:29:52.011Z,20.40
2023-04-24T10:34:58.221Z,20.70
2023-04-24T10:40:02.256Z,21.60
2023-04-24T10:45:08.064Z,22.20
2023-04-24T10:50:15.401Z,26.00
2023-04-24T10:55:20.801Z,28.70
2023-04-24T11:00:28.632Z,25.80
2023-04-24T11:05:58.303Z,23.40
2023-04-24T11:11:04.598Z,22.10
2023-04-24T11:16:23.027Z,20.50
2023-04-24T11:21:33.817Z,19.30
2023-04-24T11:26:44.102Z,18.70
2023-04-24T11:31:51.012Z,18.90
2023-04-24T11:36:56.345Z,18.90
2023-04-24T11:42:08.344Z,19.30
2023-04-24T11:47:12.460Z,19.30
2023-04-24T11:52:20.729Z,19.70
2023-04-24T11:57:29.605Z,22.20
2023-04-24T12:02:33.312Z,22.30
2023-04-24T12:07:44.405Z,22.50
2023-04-24T12:12:51.929Z,25.00
2023-04-24T12:17:57.476Z,26.40
2023-04-24T12:23:04.632Z,25.40
2023-04-24T12:28:14.760Z,21.50
2023-04-24T12:33:20.292Z,20.00
2023-04-24T12:38:26.829Z,19.20
2023-04-24T12:43:29.514Z,19.50
2023-04-24T12:48:33.167Z,21.90
2023-04-24T12:53:37.271Z,24.10
2023-04-24T12:58:39.926Z,24.90
2023-04-24T13:03:43.784Z,23.70
2023-04-24T13:08:48.749Z,22.80
2023-04-24T13:13:53.685Z,21.40
2023-04-24T13:18:57.614Z,20.70
2023-04-24T13:24:01.590Z,20.70
2023-04-24T13:29:04.699Z,23.20
2023-04-24T13:34:07.532Z,25.40
2023-04-24T13:39:12.390Z,24.20
2023-04-24T13:44:15.185Z,25.90
2023-04-24T13:49:18.260Z,26.50
2023-04-24T13:54:24.160Z,24.90
2023-04-24T13:59:26.937Z,23.60
2023-04-24T14:04:29.814Z,22.10
2023-04-24T14:09:34.025Z,21.40
2023-04-24T14:14:36.800Z,22.90
2023-04-24T14:19:39.437Z,23.10
2023-04-24T14:24:43.407Z,23.70
2023-04-24T14:29:46.859Z,26.30
2023-04-24T14:34:50.618Z,24.60
2023-04-24T14:40:11.039Z,23.00
2023-04-24T14:45:17.408Z,23.40
2023-04-24T14:50:22.969Z,23.30
2023-04-24T14:55:28.528Z,24.10
2023-04-24T15:00:31.494Z,24.00
2023-04-24T15:05:34.758Z,22.10
2023-04-24T15:10:39.107Z,23.70
2023-04-24T15:15:42.103Z,24.10
2023-04-24T15:20:44.827Z,22.70
2023-04-24T15:25:49.161Z,22.20
2023-04-24T15:30:51.808Z,20.70
2023-04-24T15:35:54.491Z,19.80
2023-04-24T15:40:58.609Z,18.90
2023-04-24T15:46:01.436Z,18.50
2023-04-24T15:51:04.233Z,18.00
2023-04-24T15:56:08.218Z,18.00
2023-04-24T16:01:13.137Z,18.10
2023-04-24T16:06:15.881Z,17.90
2023-04-24T16:11:20.208Z,17.50
2023-04-24T16:16:24.434Z,17.20
2023-04-24T16:21:29.431Z,17.10
2023-04-24T16:26:33.494Z,17.00
2023-04-24T16:31:36.328Z,17.00
2023-04-24T16:36:39.154Z,17.10
2023-04-24T16:41:43.712Z,17.10
2023-04-24T16:46:46.518Z,16.80
2023-04-24T16:51:49.270Z,16.50
2023-04-24T16:56:54.819Z,16.40
2023-04-24T17:01:57.525Z,16.20
2023-04-24T17:07:00.220Z,16.10
2023-04-24T17:12:04.363Z,16.10
2023-04-24T17:17:07.485Z,16.20
2023-04-24T17:22:10.266Z,16.50
2023-04-24T17:27:15.346Z,17.00
2023-04-24T17:32:18.433Z,17.60
2023-04-24T17:37:23.298Z,16.60
2023-04-24T17:42:27.512Z,15.80
2023-04-24T17:47:30.652Z,15.60
2023-04-24T17:52:34.305Z,15.30
2023-04-24T17:57:38.317Z,15.40
2023-04-24T18:02:41.089Z,15.10
2023-04-24T18:07:43.773Z,14.90
2023-04-24T18:12:47.893Z,14.70
2023-04-24T18:17:50.681Z,14.60
2023-04-24T18:22:53.725Z,14.40
2023-04-24T18:27:57.836Z,14.40
2023-04-24T18:33:00.559Z,14.00
2023-04-24T18:38:03.310Z,13.70
2023-04-24T18:43:07.491Z,13.50
2023-04-24T18:48:10.265Z,13.10
2023-04-24T18:53:15.214Z,13.10
2023-04-24T18:58:19.226Z,13.00
2023-04-24T19:03:22.061Z,13.00
2023-04-24T19:08:24.814Z,12.90
2023-04-24T19:13:29.029Z,13.00
2023-04-24T19:18:31.667Z,12.90
2023-04-24T19:23:36.550Z,12.90
2023-04-24T19:28:40.508Z,12.80
2023-04-24T19:33:43.290Z,12.90
2023-04-24T19:38:46.385Z,12.70
2023-04-24T19:43:50.770Z,12.80
2023-04-24T19:48:53.429Z,12.60
2023-04-24T19:53:56.117Z,12.60
2023-04-24T19:59:00.136Z,12.40
2023-04-24T20:04:03.504Z,12.20
2023-04-24T20:09:06.595Z,12.10
2023-04-24T20:14:10.592Z,11.80
2023-04-24T20:19:13.317Z,11.90
2023-04-24T20:24:16.287Z,11.90
2023-04-24T20:29:20.352Z,12.00
2023-04-24T20:34:23.532Z,12.00
2023-04-24T20:39:26.610Z,12.00
2023-04-24T20:44:30.577Z,12.10
2023-04-24T20:49:33.273Z,11.90
2023-04-24T20:54:36.076Z,11.90
2023-04-24T20:59:40.156Z,11.60
2023-04-24T21:04:42.840Z,11.40
2023-04-24T21:09:45.510Z,11.40
2023-04-24T21:14:51.243Z,11.30
2023-04-24T21:19:56.278Z,11.30
2023-04-24T21:24:59.064Z,11.30
2023-04-24T21:30:03.549Z,11.30
2023-04-24T21:35:06.997Z,11.50
2023-04-24T21:40:11.534Z,11.60
2023-04-24T21:45:15.672Z,11.50
2023-04-24T21:50:18.390Z,11.60
2023-04-24T21:55:21.611Z,11.40
2023-04-24T22:00:25.981Z,11.30
2023-04-24T22:05:30.711Z,11.20
2023-04-24T22:10:33.367Z,11.20
2023-04-24T22:15:37.380Z,11.20
2023-04-24T22:20:40.126Z,11.10
2023-04-24T22:25:42.783Z,10.90
2023-04-24T22:30:46.824Z,10.70
2023-04-24T22:35:49.456Z,10.40
2023-04-24T22:40:52.140Z,10.30
2023-04-24T22:45:56.283Z,10.10
2023-04-24T22:50:58.939Z,9.90
2023-04-24T22:56:01.649Z,9.90
2023-04-24T23:01:05.810Z,9.90
2023-04-24T23:06:08.684Z,10.10
2023-04-24T23:11:11.360Z,10.00
2023-04-24T23:16:15.958Z,9.80
2023-04-24T23:21:18.718Z,9.80
2023-04-24T23:26:21.408Z,9.60
2023-04-24T23:31:25.467Z,9.50
2023-04-24T23:36:28.297Z,9.50
2023-04-24T23:41:31.344Z,9.50
2023-04-24T23:46:35.410Z,9.70
2023-04-24T23:51:38.192Z,10.00
2023-04-24T23:56:40.867Z,10.20
